createdAt,value
2023-04-10T00:04:22.269Z,30.73
2023-04-10T00:09:24.061Z,28.58
2023-04-10T00:14:25.884Z,30.90
2023-04-10T00:19:27.546Z,24.95
2023-04-10T00:24:29.150Z,25.63
2023-04-10T00:29:30.851Z,30.13
2023-04-10T00:34:32.553Z,34.55
2023-04-10T00:39:34.650Z,29.20
2023-04-10T00:44:37.740Z,31.13
2023-04-10T00:49:39.467Z,31.75
2023-04-10T00:54:41.421Z,29.38
2023-04-10T00:59:43.478Z,32.97
2023-04-10T01:04:45.140Z,30.60
2023-04-10T01:09:59.923Z,29.73
2023-04-10T01:15:04.116Z,29.02
2023-04-10T01:20:16.509Z,26.35
2023-04-10T01:25:34.947Z,32.42
2023-04-10T01:30:37.364Z,30.52
2023-04-10T01:35:40.967Z,28.23
2023-04-10T01:40:48.993Z,30.20
2023-04-10T01:45:54.161Z,31.35
2023-04-10T01:50:56.295Z,31.23
2023-04-10T01:55:58.445Z,36.65
2023-04-10T02:01:01.596Z,29.52
2023-04-10T02:06:17.798Z,30.73
2023-04-10T02:11:25.434Z,44.55
2023-04-10T02:16:27.893Z,42.53
2023-04-10T02:21:29.744Z,37.60
2023-04-10T02:26:31.387Z,36.70
2023-04-10T02:31:33.102Z,30.55
2023-04-10T02:36:38.686Z,26.90
2023-04-10T02:41:42.182Z,25.48
2023-04-10T02:46:47.197Z,25.85
2023-04-10T02:51:49.768Z,22.75
2023-04-10T02:56:51.419Z,24.65
2023-04-10T03:01:53.151Z,26.20
2023-04-10T03:06:55.893Z,26.70
2023-04-10T03:11:58.796Z,22.85
2023-04-10T03:17:00.641Z,19.35
2023-04-10T03:22:03.649Z,22.65
2023-04-10T03:27:05.492Z,20.83
2023-04-10T03:32:08.735Z,22.60
2023-04-10T03:37:12.089Z,23.88
2023-04-10T03:42:13.831Z,24.52
2023-04-10T03:47:16.289Z,18.23
2023-04-10T03:52:23.521Z,22.63
2023-04-10T03:57:25.688Z,25.63
2023-04-10T04:02:31.838Z,22.70
2023-04-10T04:07:33.764Z,24.85
2023-04-10T04:12:45.532Z,22.63
2023-04-10T04:18:13.395Z,20.08
2023-04-10T04:23:18.828Z,22.05
2023-04-10T04:28:43.501Z,22.33
2023-04-10T04:34:23.620Z,23.50
2023-04-10T04:39:45.832Z,22.27
2023-04-10T04:45:10.822Z,23.00
2023-04-10T04:50:12.503Z,24.38
2023-04-10T04:55:29.090Z,23.50
2023-04-10T05:00:38.564Z,24.40
2023-04-10T05:05:56.846Z,23.67
2023-04-10T05:11:16.921Z,22.25
2023-04-10T05:16:27.545Z,21.75
2023-04-10T05:21:36.463Z,18.60
2023-04-10T05:26:57.798Z,24.40
2023-04-10T05:32:18.303Z,23.67
2023-04-10T05:37:46.013Z,23.67
2023-04-10T05:43:16.721Z,21.92
2023-04-10T05:48:34.913Z,22.17
2023-04-10T05:53:52.996Z,24.60
2023-04-10T05:59:14.223Z,22.38
2023-04-10T06:04:36.289Z,19.73
2023-04-10T06:09:38.294Z,18.63
2023-04-10T06:14:44.532Z,18.10
2023-04-10T06:19:47.680Z,20.80
2023-04-10T06:24:49.383Z,16.77
2023-04-10T06:29:51.149Z,20.83
2023-04-10T06:34:56.510Z,19.63
2023-04-10T06:40:09.392Z,18.90
2023-04-10T06:45:11.597Z,20.98
2023-04-10T06:50:13.199Z,18.05
2023-04-10T06:55:14.810Z,18.50
2023-04-10T07:00:16.843Z,18.27
2023-04-10T07:05:18.649Z,16.95
2023-04-10T07:10:20.306Z,15.73
2023-04-10T07:15:21.920Z,18.55
2023-04-10T07:20:23.615Z,18.33
2023-04-10T07:25:25.386Z,18.90
2023-04-10T07:30:27.026Z,17.75
2023-04-10T07:35:28.684Z,18.50
2023-04-10T07:40:30.398Z,18.10
2023-04-10T07:45:32.739Z,18.40
2023-04-10T07:50:34.365Z,20.45
2023-04-10T07:55:43.187Z,17.88
2023-04-10T08:00:45.016Z,21.63
2023-04-10T08:05:46.704Z,16.10
2023-04-10T08:10:48.788Z,20.27
2023-04-10T08:15:50.646Z,20.88
2023-04-10T08:20:52.270Z,18.38
2023-04-10T08:25:53.896Z,15.65
2023-04-10T08:30:55.708Z,19.17
2023-04-10T08:35:57.633Z,17.85
2023-04-10T08:40:59.300Z,18.02
2023-04-10T08:46:02.245Z,21.88
2023-04-10T08:51:06.093Z,19.42
2023-04-10T08:56:08.289Z,19.58
2023-04-10T09:01:13.594Z,20.40
2023-04-10T09:06:15.269Z,19.08
2023-04-10T09:11:16.967Z,18.45
2023-04-10T09:16:28.789Z,13.82
2023-04-10T09:21:31.370Z,18.52
2023-04-10T09:26:33.662Z,15.10
2023-04-10T09:31:37.480Z,16.52
2023-04-10T09:36:41.711Z,15.27
2023-04-10T09:41:55.381Z,14.38
2023-04-10T09:47:15.428Z,14.30
2023-04-10T09:52:44.287Z,11.68
2023-04-10T09:57:46.488Z,11.10
2023-04-10T10:02:48.932Z,11.23
2023-04-10T10:07:50.794Z,12.30
2023-04-10T10:12:55.918Z,12.65
2023-04-10T10:18:04.452Z,10.90
2023-04-10T10:23:07.708Z,10.73
2023-04-10T10:28:13.172Z,11.18
2023-04-10T10:33:15.082Z,13.57
2023-04-10T10:38:16.840Z,13.43
2023-04-10T10:43:26.079Z,11.50
2023-04-10T10:48:28.184Z,10.52
2023-04-10T10:53:43.376Z,13.05
2023-04-10T10:58:52.266Z,10.60
2023-04-10T11:03:54.299Z,10.85
2023-04-10T11:08:57.086Z,11.18
2023-04-10T11:14:01.397Z,9.55
2023-04-10T11:19:13.363Z,9.65
2023-04-10T11:24:34.087Z,10.00
2023-04-10T11:29:39.290Z,7.68
2023-04-10T11:34:45.102Z,9.60
2023-04-10T11:40:03.717Z,13.27
2023-04-10T11:45:26.152Z,11.00
2023-04-10T11:50:29.680Z,11.05
2023-04-10T11:55:39.073Z,12.68
2023-04-10T12:00:40.850Z,12.45
2023-04-10T12:05:47.176Z,15.20
2023-04-10T12:10:49.051Z,10.85
2023-04-10T12:15:51.068Z,11.05
2023-04-10T12:20:56.289Z,11.57
2023-04-10T12:26:17.420Z,10.95
2023-04-10T12:31:19.533Z,9.45
2023-04-10T12:36:22.765Z,10.27
2023-04-10T12:41:30.513Z,9.90
2023-04-10T12:46:32.390Z,11.38
2023-04-10T12:51:49.117Z,10.50
2023-04-10T12:56:51.461Z,8.98
2023-04-10T13:01:53.819Z,6.93
2023-04-10T13:06:55.670Z,8.93
2023-04-10T13:11:57.723Z,6.50
2023-04-10T13:16:59.368Z,6.07
2023-04-10T13:22:02.031Z,10.15
2023-04-10T13:27:03.989Z,9.35
2023-04-10T13:32:06.066Z,10.95
2023-04-10T13:37:07.819Z,9.18
2023-04-10T13:42:09.987Z,7.80
2023-04-10T13:47:11.729Z,7.72
2023-04-10T13:52:13.612Z,6.78
2023-04-10T13:57:15.381Z,7.30
2023-04-10T14:02:17.217Z,7.72
2023-04-10T14:07:19.909Z,4.95
2023-04-10T14:12:23.210Z,5.32
2023-04-10T14:17:25.499Z,6.50
2023-04-10T14:22:27.202Z,5.72
2023-04-10T14:27:28.855Z,5.88
2023-04-10T14:32:30.963Z,4.72
2023-04-10T14:37:32.736Z,4.55
2023-04-10T14:42:34.465Z,4.68
2023-04-10T14:47:36.417Z,6.60
2023-04-10T14:52:38.193Z,4.85
2023-04-10T14:57:39.881Z,5.55
2023-04-10T15:02:42.183Z,5.70
2023-04-10T15:07:44.394Z,5.97
2023-04-10T15:12:46.193Z,6.68
2023-04-10T15:17:48.281Z,6.30
2023-04-10T15:22:49.965Z,5.78
2023-04-10T15:27:51.684Z,8.05
2023-04-10T15:32:53.446Z,7.80
2023-04-10T15:37:55.441Z,8.85
2023-04-10T15:42:57.144Z,7.10
2023-04-10T15:48:01.177Z,5.95
2023-04-10T15:53:03.060Z,7.45
2023-04-10T15:58:04.720Z,6.35
2023-04-10T16:03:06.642Z,7.18
2023-04-10T16:08:08.454Z,7.45
2023-04-10T16:13:10.107Z,6.97
2023-04-10T16:18:11.854Z,7.30
2023-04-10T16:23:13.447Z,6.30
2023-04-10T16:28:15.229Z,6.18
2023-04-10T16:33:16.858Z,6.65
2023-04-10T16:38:18.535Z,6.95
2023-04-10T16:43:20.242Z,7.10
2023-04-10T16:48:21.989Z,6.53
2023-04-10T16:53:23.616Z,6.13
2023-04-10T16:58:25.907Z,6.70
2023-04-10T17:03:27.642Z,5.95
2023-04-10T17:08:29.529Z,6.72
2023-04-10T17:13:31.274Z,7.03
2023-04-10T17:18:32.902Z,6.88
2023-04-10T17:23:34.535Z,6.90
2023-04-10T17:28:36.766Z,9.50
2023-04-10T17:33:39.171Z,6.55
2023-04-10T17:38:42.013Z,7.00
2023-04-10T17:43:43.746Z,7.60
2023-04-10T17:48:45.715Z,9.35
2023-04-10T17:53:47.456Z,7.25
2023-04-10T17:58:49.259Z,8.70
2023-04-10T18:03:51.133Z,7.55
2023-04-10T18:08:53.224Z,8.63
2023-04-10T18:13:55.262Z,6.47
2023-04-10T18:18:57.014Z,11.30
2023-04-10T18:23:58.862Z,8.43
2023-04-10T18:29:00.783Z,9.65
2023-04-10T18:34:07.574Z,7.32
2023-04-10T18:39:10.811Z,8.10
2023-04-10T18:44:12.634Z,5.88
2023-04-10T18:49:14.351Z,7.20
2023-04-10T18:54:15.961Z,6.72
2023-04-10T18:59:17.605Z,6.90
2023-04-10T19:04:19.388Z,9.27
2023-04-10T19:09:21.578Z,7.45
2023-04-10T19:14:23.282Z,7.40
2023-04-10T19:19:24.892Z,7.32
2023-04-10T19:24:27.135Z,7.60
2023-04-10T19:29:31.540Z,8.98
2023-04-10T19:34:33.206Z,9.38
2023-04-10T19:39:34.961Z,10.68
2023-04-10T19:44:37.140Z,9.27
2023-04-10T19:49:38.895Z,9.57
2023-04-10T19:54:40.648Z,10.35
2023-04-10T19:59:42.278Z,11.18
2023-04-10T20:04:45.708Z,11.25
2023-04-10T20:09:49.807Z,12.10
2023-04-10T20:14:51.444Z,12.07
2023-04-10T20:19:53.055Z,10.93
2023-04-10T20:24:56.217Z,12.05
2023-04-10T20:29:57.948Z,12.25
2023-04-10T20:35:02.117Z,10.85
2023-04-10T20:40:05.917Z,12.85
2023-04-10T20:45:08.110Z,12.13
2023-04-10T20:50:13.039Z,10.98
2023-04-10T20:55:17.492Z,11.18
2023-04-10T21:00:22.217Z,10.00
2023-04-10T21:05:23.844Z,11.90
2023-04-10T21:10:27.069Z,11.75
2023-04-10T21:15:34.795Z,11.55
2023-04-10T21:20:37.705Z,13.40
2023-04-10T21:25:39.353Z,12.20
2023-04-10T21:30:41.033Z,11.70
2023-04-10T21:35:46.487Z,11.60
2023-04-10T21:41:03.874Z,11.23
2023-04-10T21:46:06.406Z,11.65
2023-04-10T21:51:08.154Z,10.63
2023-04-10T21:56:09.836Z,12.93
2023-04-10T22:01:12.535Z,12.57
2023-04-10T22:06:14.427Z,10.55
2023-04-10T22:11:16.162Z,10.25
2023-04-10T22:16:17.816Z,10.23
2023-04-10T22:21:19.472Z,9.02
2023-04-10T22:26:21.281Z,9.95
2023-04-10T22:31:23.152Z,8.32
2023-04-10T22:36:29.165Z,8.95
2023-04-10T22:41:31.806Z,8.45
2023-04-10T22:46:34.116Z,10.48
2023-04-10T22:51:35.887Z,10.43
2023-04-10T22:56:37.535Z,9.82
2023-04-10T23:01:39.221Z,8.25
2023-04-10T23:06:40.952Z,8.57
2023-04-10T23:11:43.095Z,11.68
2023-04-10T23:16:47.816Z,9.23
2023-04-10T23:21:50.035Z,8.65
2023-04-10T23:26:51.664Z,9.80
2023-04-10T23:31:53.298Z,9.07
2023-04-10T23:36:55.801Z,10.05
2023-04-10T23:41:57.563Z,9.85
2023-04-10T23:46:59.436Z,9.55
2023-04-10T23:52:01.090Z,9.85
2023-04-10T23:57:02.728Z,10.90
